Time;durP1;ratioP1;P1;durP2;ratioP2;P2;SDS_P1;SDS_P2;PMS_P1;PMS_P2;Temp;Humidity;BMP_temperature;BMP_pressure;BME280_temperature;BME280_humidity;BME280_pressure;Samples;Min_cycle;Max_cycle;Signal;HPM_P1;HPM_P2
2022/06/01 00:00:29;;;;;;;2.90;2.70;;;18.30;99.90;;;;;;5032421;28;20203;-76
2022/06/01 00:02:56;;;;;;;3.13;2.80;;;18.20;99.90;;;;;;5032342;28;20272;-76
2022/06/01 00:05:23;;;;;;;3.92;3.53;;;18.20;99.90;;;;;;5041248;28;20206;-76
2022/06/01 00:07:52;;;;;;;3.70;3.40;;;18.20;99.90;;;;;;5039391;28;20214;-76
2022/06/01 00:10:19;;;;;;;4.15;3.50;;;18.10;99.90;;;;;;5043381;28;20207;-76
2022/06/01 00:12:47;;;;;;;3.50;3.20;;;18.10;99.90;;;;;;5050274;28;20650;-76
2022/06/01 00:15:15;;;;;;;3.03;2.72;;;18.00;99.90;;;;;;5035264;28;20214;-75
2022/06/01 00:17:43;;;;;;;3.75;3.00;;;18.00;99.90;;;;;;5038845;28;20230;-76
2022/06/01 00:20:11;;;;;;;3.05;2.85;;;17.90;99.90;;;;;;5036415;28;20200;-76
2022/06/01 00:22:38;;;;;;;2.75;2.55;;;17.90;99.90;;;;;;5032326;28;20227;-76
2022/06/01 00:25:08;;;;;;;3.17;2.80;;;17.90;99.90;;;;;;5033650;28;20544;-75
2022/06/01 00:27:36;;;;;;;5.55;3.28;;;17.90;99.90;;;;;;5030729;28;20215;-76
2022/06/01 00:30:04;;;;;;;3.53;3.22;;;17.80;99.90;;;;;;5033594;28;20195;-76
2022/06/01 00:32:31;;;;;;;3.10;2.90;;;17.80;99.90;;;;;;5034219;28;20245;-75
2022/06/01 00:35:00;;;;;;;3.42;3.22;;;17.70;99.90;;;;;;5035536;28;20211;-75
2022/06/01 00:37:27;;;;;;;3.65;3.35;;;17.70;99.90;;;;;;5034668;28;20223;-75
2022/06/01 00:39:54;;;;;;;3.83;3.53;;;17.60;99.90;;;;;;5035485;28;20213;-75
2022/06/01 00:42:26;;;;;;;3.95;3.60;;;17.50;99.90;;;;;;5032979;28;20577;-76
2022/06/01 00:44:54;;;;;;;3.83;3.47;;;17.50;99.90;;;;;;5035675;28;20202;-76
2022/06/01 00:47:21;;;;;;;4.35;3.70;;;17.40;99.90;;;;;;5035219;28;20257;-75
2022/06/01 00:49:53;;;;;;;3.78;3.42;;;17.30;99.90;;;;;;5037761;28;20195;-76
2022/06/01 00:52:35;;;;;;;3.00;2.80;;;17.30;99.90;;;;;;5036328;28;20231;-75
2022/06/01 00:55:08;;;;;;;3.75;3.28;;;17.30;99.90;;;;;;5038534;28;20225;-76
2022/06/01 00:57:37;;;;;;;2.92;2.72;;;17.30;99.90;;;;;;5039660;28;20285;-76
2022/06/01 01:00:07;;;;;;;3.42;3.10;;;17.30;99.90;;;;;;5038112;28;20672;-76
2022/06/01 01:02:35;;;;;;;3.33;3.08;;;17.30;99.90;;;;;;5034806;28;20226;-76
2022/06/01 01:05:06;;;;;;;3.28;2.97;;;17.30;99.90;;;;;;5020667;28;20824;-75
2022/06/01 01:07:33;;;;;;;3.13;2.88;;;17.20;99.90;;;;;;5019397;28;20227;-74
2022/06/01 01:10:00;;;;;;;3.70;3.40;;;17.20;99.90;;;;;;5016089;28;21739;-74
2022/06/01 01:12:55;;;;;;;4.55;3.38;;;17.20;99.90;;;;;;5022023;28;20293;-76
2022/06/01 01:15:17;;;;;;;4.00;3.67;;;17.20;99.90;;;;;;5016530;28;20603;-75
2022/06/01 01:17:45;;;;;;;5.05;3.35;;;17.10;99.90;;;;;;5017757;28;20570;-76
2022/06/01 01:20:12;;;;;;;3.47;3.20;;;17.10;99.90;;;;;;5015418;28;20196;-76
2022/06/01 01:22:48;;;;;;;3.30;3.00;;;17.00;99.90;;;;;;5017761;28;20281;-77
2022/06/01 01:25:23;;;;;;;3.28;2.97;;;17.00;99.90;;;;;;5016223;28;20198;-76
2022/06/01 01:27:53;;;;;;;3.10;2.90;;;17.00;99.90;;;;;;5017101;28;20641;-75
2022/06/01 01:30:41;;;;;;;3.75;3.47;;;17.00;99.90;;;;;;5017752;28;20207;-75
2022/06/01 01:33:13;;;;;;;3.58;3.28;;;17.00;99.90;;;;;;5016053;28;20231;-75
2022/06/01 01:35:41;;;;;;;3.50;3.30;;;17.00;99.90;;;;;;5018198;28;20740;-76
2022/06/01 01:38:12;;;;;;;3.10;2.80;;;16.90;99.90;;;;;;5018346;28;20273;-76
2022/06/01 01:40:40;;;;;;;3.15;2.85;;;16.90;99.90;;;;;;5021477;28;20557;-76
2022/06/01 01:43:08;;;;;;;3.38;3.17;;;16.90;99.90;;;;;;5020544;28;20215;-76
2022/06/01 01:45:37;;;;;;;3.35;3.15;;;16.90;99.90;;;;;;5021177;28;20670;-79
2022/06/01 01:48:05;;;;;;;4.15;3.40;;;16.90;99.90;;;;;;5022198;28;20215;-76
2022/06/01 01:50:33;;;;;;;3.00;2.80;;;16.80;99.90;;;;;;5018636;28;20199;-75
2022/06/01 01:53:00;;;;;;;3.38;3.17;;;16.90;99.90;;;;;;5026359;28;20648;-75
2022/06/01 01:55:37;;;;;;;3.75;3.45;;;16.80;99.90;;;;;;5022749;28;20220;-76
2022/06/01 01:58:14;;;;;;;3.35;3.03;;;16.90;99.90;;;;;;5016686;28;20234;-76
2022/06/01 02:00:45;;;;;;;3.03;2.83;;;16.90;99.90;;;;;;5014513;28;20200;-77
2022/06/01 02:03:17;;;;;;;3.20;3.00;;;16.90;99.90;;;;;;5015801;28;20587;-76
2022/06/01 02:06:05;;;;;;;3.55;3.22;;;16.90;99.90;;;;;;5022571;28;20262;-77
2022/06/01 02:08:38;;;;;;;3.17;2.97;;;16.90;99.90;;;;;;5018119;28;20222;-76
2022/06/01 02:14:00;;;;;;;3.25;2.95;;;16.90;99.90;;;;;;5019157;28;20397;-77
2022/06/01 02:16:32;;;;;;;3.35;3.05;;;16.80;99.90;;;;;;5014992;28;20643;-75
2022/06/01 02:19:03;;;;;;;2.95;2.75;;;16.80;99.90;;;;;;5021173;28;20227;-77
2022/06/01 02:21:31;;;;;;;3.80;3.50;;;16.80;99.90;;;;;;5019186;28;20224;-76
2022/06/01 02:24:01;;;;;;;3.60;3.40;;;16.80;99.90;;;;;;5014628;28;20298;-76
2022/06/01 02:26:29;;;;;;;3.78;3.47;;;16.70;99.90;;;;;;5015535;28;20196;-77
2022/06/01 02:29:06;;;;;;;4.03;3.72;;;16.70;99.90;;;;;;5012909;28;20294;-76
2022/06/01 02:31:35;;;;;;;3.22;3.03;;;16.70;99.90;;;;;;5018694;28;20203;-77
2022/06/01 02:34:04;;;;;;;3.95;3.65;;;16.60;99.90;;;;;;5015846;28;20231;-77
2022/06/01 02:36:32;;;;;;;3.63;3.33;;;16.60;99.90;;;;;;5014608;28;20230;-77
2022/06/01 02:39:00;;;;;;;3.50;3.30;;;16.60;99.90;;;;;;5011980;28;20228;-78
2022/06/01 02:44:16;;;;;;;3.70;3.38;;;16.50;99.90;;;;;;5015301;28;20234;-79
2022/06/01 02:46:43;;;;;;;3.53;3.25;;;16.50;99.90;;;;;;5015062;28;20188;-78
2022/06/01 02:49:10;;;;;;;3.88;3.58;;;16.50;99.90;;;;;;5020615;28;20239;-78
2022/06/01 02:51:38;;;;;;;3.63;3.33;;;16.50;99.90;;;;;;5013975;28;20207;-77
2022/06/01 02:54:05;;;;;;;3.45;2.95;;;16.50;99.90;;;;;;5015618;28;20220;-77
2022/06/01 02:56:32;;;;;;;3.58;3.33;;;16.40;99.90;;;;;;5013805;28;20243;-77
2022/06/01 02:59:00;;;;;;;3.65;3.45;;;16.40;99.90;;;;;;5018695;28;20243;-77
2022/06/01 03:01:29;;;;;;;3.92;3.53;;;16.40;99.90;;;;;;5025867;28;20204;-79
2022/06/01 03:03:56;;;;;;;3.97;3.58;;;16.40;99.90;;;;;;5026908;28;20227;-76
2022/06/01 03:06:23;;;;;;;3.65;3.35;;;16.30;99.90;;;;;;5019863;28;20188;-79
2022/06/01 03:08:50;;;;;;;4.10;3.80;;;16.30;99.90;;;;;;5020243;28;20280;-76
2022/06/01 03:11:17;;;;;;;4.43;3.72;;;16.30;99.90;;;;;;5020636;28;20200;-77
2022/06/01 03:13:44;;;;;;;3.80;3.50;;;16.20;99.90;;;;;;5020872;28;20709;-77
2022/06/01 03:16:11;;;;;;;3.75;3.45;;;16.20;99.90;;;;;;5017742;28;20278;-79
2022/06/01 03:18:40;;;;;;;4.60;3.40;;;16.20;99.90;;;;;;5015732;28;20246;-78
2022/06/01 03:21:07;;;;;;;3.85;3.55;;;16.20;99.90;;;;;;5018866;28;20254;-79
2022/06/01 03:23:35;;;;;;;3.63;3.33;;;16.20;99.90;;;;;;5018806;28;20227;-78
2022/06/01 03:26:02;;;;;;;3.50;3.20;;;16.20;99.90;;;;;;5014667;28;20196;-77
2022/06/01 03:28:29;;;;;;;3.58;3.38;;;16.20;99.90;;;;;;5026211;28;20573;-77
2022/06/01 03:30:56;;;;;;;3.50;3.20;;;16.20;99.90;;;;;;5015300;28;20208;-76
2022/06/01 03:33:23;;;;;;;3.67;3.35;;;16.20;99.90;;;;;;5018845;28;20270;-77
2022/06/01 03:35:52;;;;;;;4.07;3.75;;;16.30;99.90;;;;;;5012616;28;20216;-78
2022/06/01 03:38:19;;;;;;;3.33;3.05;;;16.30;99.90;;;;;;5010422;28;20227;-77
2022/06/01 03:40:46;;;;;;;3.10;2.90;;;16.40;99.90;;;;;;5014269;28;20259;-78
2022/06/01 03:43:13;;;;;;;3.25;2.95;;;16.40;99.90;;;;;;5016868;28;20279;-77
2022/06/01 03:45:59;;;;;;;3.22;3.03;;;16.40;99.90;;;;;;5015109;28;20196;-78
2022/06/01 03:48:28;;;;;;;3.10;2.83;;;16.40;99.90;;;;;;5015508;28;20227;-77
2022/06/01 03:50:57;;;;;;;2.83;2.63;;;16.30;99.90;;;;;;5016666;28;20278;-79
2022/06/01 03:53:25;;;;;;;3.45;3.15;;;16.30;99.90;;;;;;5013264;28;20235;-77
2022/06/01 03:55:53;;;;;;;2.97;2.78;;;16.30;99.90;;;;;;5013217;28;20228;-81
2022/06/01 03:58:22;;;;;;;3.42;3.13;;;16.30;99.90;;;;;;5019358;28;20226;-78
2022/06/01 04:00:50;;;;;;;3.47;3.17;;;16.30;99.90;;;;;;5017650;28;20262;-78
2022/06/01 04:03:18;;;;;;;3.53;3.20;;;16.30;99.90;;;;;;5023383;28;20266;-78
2022/06/01 04:05:45;;;;;;;3.30;3.00;;;16.30;99.90;;;;;;5015455;28;20219;-78
2022/06/01 04:08:14;;;;;;;3.00;2.80;;;16.30;99.90;;;;;;5015855;28;20560;-76
2022/06/01 04:10:44;;;;;;;3.22;2.95;;;16.30;99.90;;;;;;5020800;28;20207;-78
2022/06/01 04:13:11;;;;;;;2.90;2.70;;;16.40;99.90;;;;;;5010459;28;20220;-77
2022/06/01 04:15:38;;;;;;;3.08;2.88;;;16.40;99.90;;;;;;5020671;28;20199;-78
2022/06/01 04:18:06;;;;;;;2.95;2.75;;;16.50;99.90;;;;;;5015105;28;20223;-76
2022/06/01 04:20:33;;;;;;;3.97;2.95;;;16.60;99.90;;;;;;5014995;28;20204;-78
2022/06/01 04:23:01;;;;;;;3.13;2.90;;;16.60;99.90;;;;;;5014974;28;20215;-79
2022/06/01 04:25:31;;;;;;;3.22;3.03;;;16.70;99.90;;;;;;5013753;28;20204;-77
2022/06/01 04:27:58;;;;;;;3.35;3.05;;;16.70;99.90;;;;;;5015217;28;20215;-77
2022/06/01 04:30:25;;;;;;;3.42;3.13;;;16.70;99.90;;;;;;5014659;28;20200;-75
2022/06/01 04:32:53;;;;;;;3.08;2.88;;;16.80;99.90;;;;;;5011432;28;20223;-74
2022/06/01 04:35:22;;;;;;;3.42;3.13;;;16.80;99.90;;;;;;5014694;28;20625;-78
2022/06/01 04:37:49;;;;;;;3.50;3.28;;;16.90;99.90;;;;;;5018278;28;20640;-76
2022/06/01 04:40:18;;;;;;;3.42;3.22;;;16.80;99.90;;;;;;5015306;28;20211;-77
2022/06/01 04:42:47;;;;;;;3.65;3.35;;;16.80;99.90;;;;;;5011529;28;20231;-78
2022/06/01 04:45:15;;;;;;;4.07;3.67;;;16.80;99.90;;;;;;5014761;28;20232;-77
2022/06/01 04:47:43;;;;;;;3.45;3.25;;;16.80;99.90;;;;;;5011958;28;20196;-78
2022/06/01 04:50:11;;;;;;;3.60;3.30;;;16.70;99.90;;;;;;5015464;28;20211;-77
2022/06/01 04:52:38;;;;;;;4.22;3.83;;;16.70;99.90;;;;;;5013743;28;20224;-76
2022/06/01 04:55:08;;;;;;;3.78;3.40;;;16.70;99.90;;;;;;5014287;28;20224;-77
2022/06/01 04:57:36;;;;;;;3.67;3.38;;;16.70;99.90;;;;;;5014174;28;20335;-77
2022/06/01 05:00:06;;;;;;;3.47;3.17;;;16.80;99.90;;;;;;5016246;28;20274;-79
2022/06/01 05:02:33;;;;;;;3.25;3.05;;;16.90;99.90;;;;;;5014696;28;20224;-79
2022/06/01 05:05:00;;;;;;;3.67;3.40;;;16.90;99.90;;;;;;5019975;28;20223;-76
2022/06/01 05:07:27;;;;;;;3.40;3.20;;;17.00;99.90;;;;;;5013695;28;20215;-78
2022/06/01 05:09:54;;;;;;;3.60;3.40;;;17.00;99.90;;;;;;5021201;28;20230;-76
2022/06/01 05:12:21;;;;;;;3.60;3.05;;;17.10;99.90;;;;;;5078668;23;20227;-76
2022/06/01 05:14:48;;;;;;;2.90;2.70;;;17.10;99.90;;;;;;5035060;28;20218;-76
2022/06/01 05:17:17;;;;;;;3.17;2.97;;;17.20;99.90;;;;;;5042355;28;20289;-77
2022/06/01 05:19:45;;;;;;;2.95;2.70;;;17.20;99.90;;;;;;5042673;28;20239;-76
2022/06/01 05:22:12;;;;;;;4.97;3.15;;;17.30;99.90;;;;;;5041072;28;20218;-77
2022/06/01 05:24:39;;;;;;;3.42;3.10;;;17.20;99.90;;;;;;5043644;28;20226;-76
2022/06/01 05:27:07;;;;;;;3.35;3.10;;;17.20;99.90;;;;;;5042086;28;20658;-77
2022/06/01 05:29:35;;;;;;;3.10;2.80;;;17.20;99.90;;;;;;5036698;28;20302;-76
2022/06/01 05:32:02;;;;;;;3.30;3.05;;;17.30;99.90;;;;;;5043929;28;20284;-77
2022/06/01 05:34:30;;;;;;;3.08;2.53;;;17.40;99.90;;;;;;5043264;28;20639;-77
2022/06/01 05:36:57;;;;;;;3.03;2.83;;;17.40;99.90;;;;;;5046813;28;20670;-76
2022/06/01 05:39:25;;;;;;;5.72;2.97;;;17.50;99.90;;;;;;5063117;28;20646;-77
2022/06/01 05:41:52;;;;;;;3.10;2.80;;;17.60;99.90;;;;;;5080870;28;20214;-76
2022/06/01 05:44:19;;;;;;;2.80;2.60;;;17.60;99.90;;;;;;5079130;28;20646;-77
2022/06/01 05:46:46;;;;;;;3.83;3.28;;;17.70;99.90;;;;;;5081171;28;20201;-76
2022/06/01 05:49:14;;;;;;;3.30;3.10;;;17.70;99.90;;;;;;5084958;28;20232;-77
2022/06/01 05:51:43;;;;;;;3.00;2.80;;;17.80;99.90;;;;;;5086534;28;20236;-76
2022/06/01 05:54:10;;;;;;;3.50;3.20;;;17.80;99.90;;;;;;5083868;28;20346;-77
2022/06/01 05:56:37;;;;;;;3.60;3.30;;;17.90;99.90;;;;;;5081628;28;20205;-76
2022/06/01 05:59:04;;;;;;;3.83;3.15;;;18.10;99.90;;;;;;5086076;28;20225;-76
2022/06/01 06:01:31;;;;;;;5.47;3.80;;;18.20;99.90;;;;;;5085275;28;20217;-76
2022/06/01 06:03:58;;;;;;;4.18;3.78;;;18.50;99.90;;;;;;5079502;28;20218;-76
2022/06/01 06:06:25;;;;;;;4.25;3.58;;;18.70;99.90;;;;;;5082802;28;20194;-76
2022/06/01 06:08:56;;;;;;;4.68;3.85;;;18.80;99.90;;;;;;5081237;28;20699;-75
2022/06/01 06:11:26;;;;;;;4.00;3.70;;;18.90;99.90;;;;;;5081316;28;20229;-76
2022/06/01 06:13:53;;;;;;;3.95;3.58;;;19.10;99.90;;;;;;5085732;28;20225;-76
2022/06/01 06:16:22;;;;;;;4.80;3.53;;;19.20;99.90;;;;;;5085954;28;20282;-76
2022/06/01 06:18:50;;;;;;;4.30;3.90;;;19.40;99.90;;;;;;5081339;28;20226;-76
2022/06/01 06:21:18;;;;;;;4.45;4.05;;;19.60;99.90;;;;;;5083385;28;20256;-76
2022/06/01 06:23:45;;;;;;;4.00;3.70;;;19.60;99.90;;;;;;5085413;28;20213;-76
2022/06/01 06:26:13;;;;;;;4.32;3.95;;;19.60;99.90;;;;;;5083522;28;20198;-76
2022/06/01 06:28:40;;;;;;;4.57;4.18;;;19.70;99.90;;;;;;5080902;28;20229;-76
2022/06/01 06:31:08;;;;;;;5.00;4.63;;;19.70;99.90;;;;;;5081061;28;20702;-76
2022/06/01 06:33:36;;;;;;;5.63;4.63;;;19.80;99.90;;;;;;5085107;28;20222;-75
2022/06/01 06:36:07;;;;;;;4.63;3.65;;;19.80;99.90;;;;;;5079336;28;20198;-75
2022/06/01 06:38:36;;;;;;;3.83;3.53;;;19.80;99.90;;;;;;5077824;28;20222;-75
2022/06/01 06:41:04;;;;;;;3.80;3.50;;;19.80;99.90;;;;;;5082252;28;20209;-75
2022/06/01 06:43:35;;;;;;;3.92;3.60;;;19.90;99.90;;;;;;5078769;28;20308;-76
2022/06/01 06:46:05;;;;;;;4.28;3.47;;;20.00;99.90;;;;;;5080436;28;20208;-76
2022/06/01 06:48:32;;;;;;;4.03;3.72;;;20.10;99.90;;;;;;5076786;28;20245;-75
2022/06/01 06:50:59;;;;;;;3.60;3.30;;;20.20;99.90;;;;;;5078655;28;20703;-76
2022/06/01 06:53:27;;;;;;;3.80;3.47;;;20.20;99.90;;;;;;5078969;28;20308;-76
2022/06/01 06:55:55;;;;;;;4.85;3.30;;;20.50;99.90;;;;;;5084456;28;20567;-76
2022/06/01 06:58:22;;;;;;;5.05;3.33;;;20.60;99.90;;;;;;5076977;28;20691;-75
2022/06/01 07:00:51;;;;;;;3.70;3.40;;;20.80;99.90;;;;;;5080302;28;20589;-75
2022/06/01 07:03:18;;;;;;;3.55;3.30;;;21.00;99.90;;;;;;5077131;28;20221;-77
2022/06/01 07:08:30;;;;;;;3.25;3.05;;;21.00;99.90;;;;;;5079852;28;20192;-77
2022/06/01 07:10:58;;;;;;;4.30;3.90;;;21.00;99.90;;;;;;5079453;28;20917;-76
2022/06/01 07:13:27;;;;;;;5.40;3.58;;;21.10;99.90;;;;;;5076827;28;20225;-76
2022/06/01 07:16:07;;;;;;;3.08;2.83;;;21.10;99.90;;;;;;5080324;28;20194;-77
2022/06/01 07:18:35;;;;;;;3.50;3.20;;;21.30;99.90;;;;;;5080538;28;20205;-77
2022/06/01 07:21:03;;;;;;;4.07;3.63;;;21.30;99.90;;;;;;5079168;28;20262;-77
2022/06/01 07:23:30;;;;;;;3.42;3.13;;;21.40;99.90;;;;;;5079781;28;20214;-78
2022/06/01 07:25:57;;;;;;;3.50;3.20;;;21.50;99.90;;;;;;5073508;28;20198;-76
2022/06/01 07:28:24;;;;;;;3.70;3.40;;;21.50;99.90;;;;;;5080739;28;20193;-75
2022/06/01 07:30:56;;;;;;;3.60;3.30;;;21.50;99.90;;;;;;5079822;28;20259;-77
2022/06/01 07:33:26;;;;;;;3.65;3.35;;;21.60;99.90;;;;;;5077399;28;20209;-75
2022/06/01 07:35:54;;;;;;;3.58;3.28;;;21.90;99.90;;;;;;5077700;28;20198;-76
2022/06/01 07:43:51;;;;;;;3.75;3.45;;;22.00;99.90;;;;;;5074422;28;20653;-75
2022/06/01 07:46:18;;;;;;;5.15;3.67;;;22.10;99.90;;;;;;5078283;28;20654;-76
2022/06/01 07:48:47;;;;;;;3.83;3.53;;;22.00;99.90;;;;;;5074333;28;20221;-77
2022/06/01 07:51:14;;;;;;;3.47;3.03;;;22.20;99.90;;;;;;5074156;28;20611;-76
2022/06/01 07:53:41;;;;;;;4.07;3.60;;;22.40;99.90;;;;;;5075509;28;20195;-76
2022/06/01 07:56:08;;;;;;;4.03;3.63;;;22.50;99.90;;;;;;5083226;28;20274;-76
2022/06/01 07:58:36;;;;;;;3.55;3.22;;;22.50;99.90;;;;;;5077324;28;20249;-75
2022/06/01 08:01:04;;;;;;;4.45;3.55;;;22.60;99.90;;;;;;5075019;28;20209;-77
2022/06/01 08:03:30;;;;;;;4.10;3.53;;;22.70;99.90;;;;;;5072382;28;20299;-76
2022/06/01 08:05:59;;;;;;;3.40;3.10;;;22.90;99.90;;;;;;5071218;28;20258;-76
2022/06/01 08:08:26;;;;;;;4.32;3.20;;;23.00;99.90;;;;;;5077150;28;20213;-75
2022/06/01 08:10:53;;;;;;;3.10;2.90;;;23.10;99.90;;;;;;5081759;28;20221;-76
2022/06/01 08:13:19;;;;;;;3.85;3.17;;;23.00;99.90;;;;;;5079939;28;20230;-75
2022/06/01 08:15:48;;;;;;;4.32;3.10;;;23.10;99.90;;;;;;5096477;28;20213;-77
2022/06/01 08:18:17;;;;;;;3.40;3.10;;;23.00;99.90;;;;;;5080466;28;21608;-75
2022/06/01 08:20:45;;;;;;;3.90;3.30;;;23.20;99.90;;;;;;5078599;28;20217;-75
2022/06/01 08:23:14;;;;;;;6.63;3.10;;;23.20;99.90;;;;;;5078033;28;20278;-75
2022/06/01 08:25:42;;;;;;;3.70;2.65;;;23.30;99.90;;;;;;5072412;28;20218;-75
2022/06/01 08:28:10;;;;;;;3.92;3.50;;;23.20;99.90;;;;;;5073171;28;20309;-76
2022/06/01 08:30:39;;;;;;;3.45;3.15;;;23.20;99.90;;;;;;5076099;28;20213;-75
2022/06/01 08:33:07;;;;;;;4.60;3.53;;;23.20;99.90;;;;;;5080108;28;20220;-76
2022/06/01 08:35:36;;;;;;;3.60;3.30;;;23.40;99.90;;;;;;5073012;28;20221;-75
2022/06/01 08:38:04;;;;;;;3.58;2.97;;;23.40;99.90;;;;;;5075573;28;20210;-77
2022/06/01 08:40:40;;;;;;;3.20;2.90;;;23.50;99.90;;;;;;5080348;28;20224;-76
2022/06/01 08:43:11;;;;;;;6.28;3.92;;;23.70;99.90;;;;;;5079292;28;20219;-77
2022/06/01 08:45:39;;;;;;;4.25;3.85;;;23.80;99.90;;;;;;5079216;28;20252;-75
2022/06/01 08:48:07;;;;;;;4.53;3.40;;;23.70;99.90;;;;;;5078916;28;20190;-75
2022/06/01 08:50:39;;;;;;;4.70;3.20;;;23.70;99.90;;;;;;5079352;28;20217;-75
2022/06/01 08:53:09;;;;;;;2.95;2.75;;;23.60;99.90;;;;;;5079679;28;20224;-76
2022/06/01 08:55:45;;;;;;;5.47;3.42;;;23.70;99.90;;;;;;5076769;28;20263;-75
2022/06/01 08:58:16;;;;;;;3.63;3.28;;;23.90;99.90;;;;;;5079193;28;20213;-77
2022/06/01 09:00:51;;;;;;;4.55;3.50;;;23.90;99.90;;;;;;5078527;28;20225;-76
2022/06/01 09:03:29;;;;;;;4.07;3.13;;;23.90;99.90;;;;;;5076274;28;20321;-76
2022/06/01 09:06:04;;;;;;;3.80;3.38;;;23.80;99.90;;;;;;5076886;28;20417;-76
2022/06/01 09:08:40;;;;;;;3.47;2.95;;;23.90;99.90;;;;;;5076893;28;20582;-77
2022/06/01 09:11:10;;;;;;;4.13;3.28;;;24.30;99.90;;;;;;5078740;28;20251;-78
2022/06/01 09:13:47;;;;;;;4.57;3.95;;;24.30;99.90;;;;;;5078423;28;20197;-75
2022/06/01 09:16:18;;;;;;;4.30;3.80;;;24.40;99.90;;;;;;5069886;28;20229;-76
2022/06/01 09:18:48;;;;;;;4.15;3.38;;;24.40;99.90;;;;;;5075223;28;20309;-75
2022/06/01 09:24:13;;;;;;;5.28;4.15;;;24.50;99.90;;;;;;5079761;28;20592;-75
2022/06/01 09:26:54;;;;;;;4.45;4.05;;;24.60;99.90;;;;;;5074510;28;20205;-75
2022/06/01 09:29:24;;;;;;;5.63;3.90;;;24.70;99.90;;;;;;5070671;28;20743;-75
2022/06/01 09:31:56;;;;;;;4.38;3.80;;;24.70;99.90;;;;;;5076315;28;20263;-75
2022/06/01 09:34:29;;;;;;;4.43;4.03;;;24.50;99.90;;;;;;5071186;28;20225;-76
2022/06/01 09:37:03;;;;;;;5.32;4.00;;;24.50;99.90;;;;;;5075475;28;20259;-75
2022/06/01 09:39:31;;;;;;;6.20;4.90;;;24.70;99.90;;;;;;5080357;28;20245;-75
2022/06/01 09:42:14;;;;;;;4.43;3.90;;;24.50;99.90;;;;;;5077441;28;20206;-75
2022/06/01 09:44:46;;;;;;;6.25;4.07;;;24.40;99.90;;;;;;5089288;28;20639;-75
2022/06/01 09:47:31;;;;;;;6.30;4.82;;;24.60;99.90;;;;;;5081795;28;20208;-75
2022/06/01 09:50:00;;;;;;;4.35;3.70;;;24.80;99.90;;;;;;5083145;28;20210;-76
2022/06/01 09:52:32;;;;;;;3.85;3.47;;;24.90;99.90;;;;;;5083912;28;20226;-75
2022/06/01 09:55:09;;;;;;;4.43;3.97;;;25.00;99.90;;;;;;5077526;28;20708;-75
2022/06/01 09:57:38;;;;;;;4.30;3.90;;;25.40;99.90;;;;;;5079999;28;20293;-75
2022/06/01 10:06:16;;;;;;;4.00;3.60;;;25.60;99.90;;;;;;5080459;28;20570;-75
2022/06/01 10:08:55;;;;;;;3.75;3.45;;;25.40;99.90;;;;;;5082382;28;20479;-75
2022/06/01 10:11:34;;;;;;;3.42;3.20;;;25.50;99.90;;;;;;5082078;28;20796;-76
2022/06/01 10:14:18;;;;;;;6.22;4.45;;;25.90;99.90;;;;;;5080886;28;20202;-75
2022/06/01 10:17:12;;;;;;;3.20;3.00;;;26.30;99.90;;;;;;5078328;28;20194;-78
2022/06/01 10:19:42;;;;;;;3.42;3.13;;;26.60;99.90;;;;;;5080653;28;20224;-75
2022/06/01 10:22:18;;;;;;;3.08;2.80;;;26.60;99.90;;;;;;5079768;28;20212;-75
2022/06/01 10:24:51;;;;;;;3.50;3.10;;;26.40;99.90;;;;;;5077635;28;20214;-76
2022/06/01 10:27:23;;;;;;;3.20;2.88;;;26.30;99.90;;;;;;5083013;28;20201;-76
2022/06/01 10:30:03;;;;;;;3.58;2.80;;;26.20;99.90;;;;;;5082819;28;20221;-77
2022/06/01 10:32:35;;;;;;;4.50;2.92;;;26.20;99.90;;;;;;5083121;28;20588;-78
2022/06/01 10:35:18;;;;;;;3.45;2.53;;;26.20;99.90;;;;;;5083078;28;20247;-76
2022/06/01 10:38:03;;;;;;;4.05;2.90;;;26.30;99.90;;;;;;5078089;28;20217;-78
2022/06/01 10:40:38;;;;;;;5.10;3.00;;;26.30;99.90;;;;;;5073078;28;20218;-77
2022/06/01 10:43:17;;;;;;;3.53;3.10;;;26.00;99.90;;;;;;5080066;28;20217;-75
2022/06/01 10:45:50;;;;;;;2.80;2.58;;;26.00;99.90;;;;;;5076736;28;20222;-77
2022/06/01 10:48:28;;;;;;;4.30;3.17;;;26.40;99.90;;;;;;5075848;28;20252;-78
2022/06/01 10:51:03;;;;;;;3.83;3.25;;;26.60;99.90;;;;;;5079476;28;20213;-79
2022/06/01 10:53:42;;;;;;;3.33;2.83;;;26.70;99.90;;;;;;5080530;28;20238;-79
2022/06/01 10:56:09;;;;;;;4.00;3.38;;;26.70;99.90;;;;;;5080279;28;20715;-79
2022/06/01 10:58:37;;;;;;;3.53;3.22;;;26.20;99.90;;;;;;5085427;28;20221;-76
2022/06/01 11:01:13;;;;;;;3.63;3.30;;;26.30;99.90;;;;;;5080481;28;20274;-76
2022/06/01 11:04:25;;;;;;;3.92;3.20;;;26.50;99.90;;;;;;5077822;28;20208;-76
2022/06/01 11:07:25;;;;;;;3.45;2.63;;;26.60;99.90;;;;;;5083489;28;20228;-75
2022/06/01 11:10:03;;;;;;;3.53;2.72;;;26.70;99.90;;;;;;5076170;28;20229;-78
2022/06/01 11:12:36;;;;;;;6.40;3.67;;;26.50;99.90;;;;;;5101280;22;20232;-76
2022/06/01 11:15:14;;;;;;;3.40;3.10;;;26.40;99.90;;;;;;5009590;28;20223;-77
2022/06/01 11:17:46;;;;;;;4.72;2.67;;;26.50;99.90;;;;;;5018574;28;20290;-77
2022/06/01 11:20:36;;;;;;;2.72;2.53;;;26.70;99.90;;;;;;5013208;28;20216;-77
2022/06/01 11:23:17;;;;;;;3.92;3.13;;;26.80;99.90;;;;;;4995589;28;20227;-76
2022/06/01 11:25:51;;;;;;;3.60;2.70;;;27.00;99.90;;;;;;4995723;28;20216;-76
2022/06/01 11:28:46;;;;;;;4.88;2.83;;;26.90;99.90;;;;;;4996704;28;20504;-76
2022/06/01 11:31:18;;;;;;;3.67;3.35;;;26.70;99.90;;;;;;4996256;28;20227;-75
2022/06/01 11:33:54;;;;;;;3.72;3.38;;;26.20;99.90;;;;;;4998300;28;20268;-76
2022/06/01 11:36:29;;;;;;;3.00;2.70;;;25.90;99.90;;;;;;5009748;28;20245;-77
2022/06/01 11:39:05;;;;;;;8.38;3.50;;;25.50;99.90;;;;;;5020866;28;20227;-77
2022/06/01 11:41:37;;;;;;;3.20;2.97;;;25.40;99.90;;;;;;5002894;28;20618;-78
2022/06/01 11:44:09;;;;;;;3.35;2.72;;;25.60;99.90;;;;;;5001420;28;20216;-77
2022/06/01 11:46:41;;;;;;;3.05;2.78;;;26.20;99.90;;;;;;5012229;28;20243;-75
2022/06/01 11:49:14;;;;;;;3.38;3.08;;;26.70;99.90;;;;;;5017778;28;20549;-78
2022/06/01 11:51:47;;;;;;;2.95;2.70;;;26.90;99.90;;;;;;5016095;28;20215;-76
2022/06/01 11:54:25;;;;;;;2.65;2.40;;;26.60;99.90;;;;;;5015107;28;20486;-77
2022/06/01 11:56:55;;;;;;;5.57;2.75;;;26.50;99.90;;;;;;5019868;28;20234;-78
2022/06/01 11:59:29;;;;;;;3.40;2.92;;;26.60;99.90;;;;;;5015627;28;20219;-76
2022/06/01 12:02:05;;;;;;;3.28;2.90;;;26.70;99.90;;;;;;5018210;28;20235;-77
2022/06/01 12:04:52;;;;;;;3.78;3.38;;;26.70;99.90;;;;;;5021062;28;20314;-79
2022/06/01 12:07:25;;;;;;;4.38;3.05;;;26.50;99.90;;;;;;5003178;28;20823;-78
2022/06/01 12:10:01;;;;;;;3.50;3.20;;;26.40;99.90;;;;;;5022688;28;20192;-78
2022/06/01 12:12:44;;;;;;;3.40;3.10;;;26.00;99.90;;;;;;5017928;28;20223;-78
2022/06/01 12:15:29;;;;;;;5.85;4.35;;;26.00;99.90;;;;;;5018121;28;20362;-76
2022/06/01 12:18:06;;;;;;;3.33;3.03;;;25.80;99.90;;;;;;5015694;28;20220;-77
2022/06/01 12:21:15;;;;;;;4.13;3.83;;;25.70;99.90;;;;;;5018637;28;20911;-77
2022/06/01 12:30:14;;;;;;;4.38;3.95;;;25.40;99.90;;;;;;5000511;28;20226;-78
2022/06/01 12:33:08;;;;;;;4.68;3.95;;;25.50;99.90;;;;;;4999092;28;20289;-75
2022/06/01 12:35:42;;;;;;;3.88;3.58;;;25.80;99.90;;;;;;4986288;28;20220;-78
2022/06/01 12:38:18;;;;;;;4.13;3.17;;;25.90;99.90;;;;;;4997366;28;20280;-76
2022/06/01 12:41:03;;;;;;;3.65;3.30;;;26.20;99.90;;;;;;4997341;28;20815;-78
2022/06/01 12:43:31;;;;;;;3.50;3.20;;;26.50;99.90;;;;;;4998744;28;20228;-77
2022/06/01 12:45:58;;;;;;;3.83;3.42;;;27.00;99.90;;;;;;4999085;28;20315;-77
2022/06/01 12:48:27;;;;;;;3.30;3.00;;;27.10;99.90;;;;;;4997976;28;20192;-75
2022/06/01 12:50:56;;;;;;;5.40;3.70;;;26.70;99.90;;;;;;5009092;28;20337;-77
2022/06/01 12:53:27;;;;;;;3.60;3.30;;;26.20;99.90;;;;;;5013355;28;20279;-77
2022/06/01 12:56:09;;;;;;;3.85;3.45;;;25.90;99.90;;;;;;5005404;28;20222;-78
2022/06/01 12:58:39;;;;;;;4.00;3.28;;;26.20;99.90;;;;;;4999914;28;20217;-76
2022/06/01 13:01:07;;;;;;;3.28;2.97;;;26.40;99.90;;;;;;5015191;28;20522;-78
2022/06/01 13:03:35;;;;;;;4.22;3.20;;;26.90;99.90;;;;;;5014970;28;20220;-77
2022/06/01 13:06:08;;;;;;;4.43;3.25;;;27.00;99.90;;;;;;5003425;28;20754;-77
2022/06/01 13:08:39;;;;;;;4.00;3.30;;;27.10;99.90;;;;;;4995706;28;20651;-78
2022/06/01 13:11:16;;;;;;;3.58;3.15;;;27.00;99.90;;;;;;5010060;28;20617;-78
2022/06/01 13:13:44;;;;;;;7.38;4.03;;;26.60;99.90;;;;;;5016498;28;21197;-78
2022/06/01 13:16:12;;;;;;;3.80;3.40;;;26.60;99.90;;;;;;5009432;28;20303;-78
2022/06/01 13:18:42;;;;;;;5.22;3.58;;;27.00;99.90;;;;;;5003299;28;20231;-79
2022/06/01 13:21:16;;;;;;;4.10;3.50;;;27.20;99.90;;;;;;4998495;28;20238;-79
2022/06/01 13:23:52;;;;;;;4.10;3.00;;;27.30;99.90;;;;;;5002459;28;20528;-78
2022/06/01 13:26:28;;;;;;;4.13;3.13;;;27.30;99.90;;;;;;5000769;28;20236;-78
2022/06/01 13:28:58;;;;;;;3.40;3.10;;;27.50;99.90;;;;;;5000285;28;20199;-78
2022/06/01 13:31:25;;;;;;;3.90;3.00;;;27.50;99.90;;;;;;5000441;28;20589;-77
2022/06/01 13:33:52;;;;;;;3.95;2.90;;;27.60;99.90;;;;;;5003826;28;20226;-78
2022/06/01 13:36:29;;;;;;;3.58;3.28;;;27.70;99.90;;;;;;5003492;28;20232;-78